sensor_id;sensor_type;location;lat;lon;timestamp;P1;durP1;ratioP1;P2;durP2;ratioP2
6143;SDS011;3103;49.492;8.474;2022-09-09T00:03:57;3.27;;;1.70;;
6143;SDS011;3103;49.492;8.474;2022-09-09T00:09:22;4.00;;;1.50;;
6143;SDS011;3103;49.492;8.474;2022-09-09T00:12:04;3.27;;;1.50;;
6143;SDS011;3103;49.492;8.474;2022-09-09T00:14:53;8.37;;;1.70;;
6143;SDS011;3103;49.492;8.474;2022-09-09T00:17:30;5.83;;;2.27;;
6143;SDS011;3103;49.492;8.474;2022-09-09T00:20:03;21.67;;;11.67;;
6143;SDS011;3103;49.492;8.474;2022-09-09T00:22:40;17.60;;;10.67;;
6143;SDS011;3103;49.492;8.474;2022-09-09T00:25:16;3.90;;;2.00;;
6143;SDS011;3103;49.492;8.474;2022-09-09T00:27:49;11.90;;;6.73;;
6143;SDS011;3103;49.492;8.474;2022-09-09T00:30:18;7.83;;;3.10;;
6143;SDS011;3103;49.492;8.474;2022-09-09T00:32:55;5.13;;;2.83;;
6143;SDS011;3103;49.492;8.474;2022-09-09T00:35:38;7.37;;;2.90;;
6143;SDS011;3103;49.492;8.474;2022-09-09T00:38:13;3.83;;;1.83;;
6143;SDS011;3103;49.492;8.474;2022-09-09T00:54:31;2.63;;;1.30;;
6143;SDS011;3103;49.492;8.474;2022-09-09T01:00:02;2.43;;;1.40;;
6143;SDS011;3103;49.492;8.474;2022-09-09T01:02:45;3.47;;;1.50;;
6143;SDS011;3103;49.492;8.474;2022-09-09T01:05:34;5.53;;;1.73;;
6143;SDS011;3103;49.492;8.474;2022-09-09T01:08:11;2.73;;;1.60;;
6143;SDS011;3103;49.492;8.474;2022-09-09T01:10:55;3.03;;;1.13;;
6143;SDS011;3103;49.492;8.474;2022-09-09T01:13:34;3.67;;;1.57;;
6143;SDS011;3103;49.492;8.474;2022-09-09T01:16:07;3.30;;;1.63;;
6143;SDS011;3103;49.492;8.474;2022-09-09T01:18:39;2.60;;;1.37;;
6143;SDS011;3103;49.492;8.474;2022-09-09T01:26:37;3.10;;;1.50;;
6143;SDS011;3103;49.492;8.474;2022-09-09T01:29:14;1.40;;;1.30;;
6143;SDS011;3103;49.492;8.474;2022-09-09T01:31:57;4.00;;;1.17;;
6143;SDS011;3103;49.492;8.474;2022-09-09T01:34:33;2.67;;;1.20;;
6143;SDS011;3103;49.492;8.474;2022-09-09T01:37:06;2.00;;;1.37;;
6143;SDS011;3103;49.492;8.474;2022-09-09T01:39:37;3.60;;;1.73;;
6143;SDS011;3103;49.492;8.474;2022-09-09T01:42:11;2.30;;;1.53;;
6143;SDS011;3103;49.492;8.474;2022-09-09T01:44:41;3.93;;;1.60;;
6143;SDS011;3103;49.492;8.474;2022-09-09T01:47:08;1.87;;;1.50;;
6143;SDS011;3103;49.492;8.474;2022-09-09T01:49:52;2.53;;;1.30;;
6143;SDS011;3103;49.492;8.474;2022-09-09T01:52:23;4.40;;;1.60;;
6143;SDS011;3103;49.492;8.474;2022-09-09T01:54:50;6.87;;;1.50;;
6143;SDS011;3103;49.492;8.474;2022-09-09T01:57:25;2.93;;;1.70;;
6143;SDS011;3103;49.492;8.474;2022-09-09T02:00:05;3.53;;;1.50;;
6143;SDS011;3103;49.492;8.474;2022-09-09T02:06:00;5.13;;;1.40;;
6143;SDS011;3103;49.492;8.474;2022-09-09T02:08:48;3.57;;;1.20;;
6143;SDS011;3103;49.492;8.474;2022-09-09T02:11:21;2.83;;;1.20;;
6143;SDS011;3103;49.492;8.474;2022-09-09T02:14:07;5.23;;;1.80;;
6143;SDS011;3103;49.492;8.474;2022-09-09T02:16:49;3.23;;;1.50;;
6143;SDS011;3103;49.492;8.474;2022-09-09T02:19:27;3.93;;;1.37;;
6143;SDS011;3103;49.492;8.474;2022-09-09T02:22:18;4.10;;;1.33;;
6143;SDS011;3103;49.492;8.474;2022-09-09T02:24:49;3.07;;;1.60;;
6143;SDS011;3103;49.492;8.474;2022-09-09T02:27:22;1.93;;;1.20;;
6143;SDS011;3103;49.492;8.474;2022-09-09T02:29:50;3.27;;;1.30;;
6143;SDS011;3103;49.492;8.474;2022-09-09T02:32:29;3.37;;;1.37;;
6143;SDS011;3103;49.492;8.474;2022-09-09T02:35:05;5.60;;;1.83;;
6143;SDS011;3103;49.492;8.474;2022-09-09T02:37:38;3.90;;;1.53;;
6143;SDS011;3103;49.492;8.474;2022-09-09T02:40:06;4.43;;;1.30;;
6143;SDS011;3103;49.492;8.474;2022-09-09T02:42:40;3.87;;;1.43;;
6143;SDS011;3103;49.492;8.474;2022-09-09T02:45:09;2.73;;;1.00;;
6143;SDS011;3103;49.492;8.474;2022-09-09T02:47:38;2.93;;;1.20;;
6143;SDS011;3103;49.492;8.474;2022-09-09T02:55:23;5.47;;;1.20;;
6143;SDS011;3103;49.492;8.474;2022-09-09T02:58:01;2.40;;;1.47;;
6143;SDS011;3103;49.492;8.474;2022-09-09T03:00:34;2.97;;;1.30;;
6143;SDS011;3103;49.492;8.474;2022-09-09T03:03:07;2.27;;;1.17;;
6143;SDS011;3103;49.492;8.474;2022-09-09T03:05:36;2.03;;;1.13;;
6143;SDS011;3103;49.492;8.474;2022-09-09T03:08:04;2.93;;;1.80;;
6143;SDS011;3103;49.492;8.474;2022-09-09T03:10:32;2.77;;;1.50;;
6143;SDS011;3103;49.492;8.474;2022-09-09T03:12:59;5.53;;;1.53;;
6143;SDS011;3103;49.492;8.474;2022-09-09T03:15:30;1.73;;;1.20;;
6143;SDS011;3103;49.492;8.474;2022-09-09T03:17:58;1.80;;;1.10;;
6143;SDS011;3103;49.492;8.474;2022-09-09T03:20:25;2.40;;;1.40;;
6143;SDS011;3103;49.492;8.474;2022-09-09T03:22:55;2.70;;;1.30;;
6143;SDS011;3103;49.492;8.474;2022-09-09T03:25:22;3.30;;;1.13;;
6143;SDS011;3103;49.492;8.474;2022-09-09T03:27:53;5.97;;;1.30;;
6143;SDS011;3103;49.492;8.474;2022-09-09T03:30:23;2.50;;;1.17;;
6143;SDS011;3103;49.492;8.474;2022-09-09T03:32:53;3.40;;;1.47;;
6143;SDS011;3103;49.492;8.474;2022-09-09T03:35:19;4.13;;;1.37;;
6143;SDS011;3103;49.492;8.474;2022-09-09T03:37:46;2.13;;;1.00;;
6143;SDS011;3103;49.492;8.474;2022-09-09T03:40:14;2.93;;;1.20;;
6143;SDS011;3103;49.492;8.474;2022-09-09T03:42:44;7.63;;;1.50;;
6143;SDS011;3103;49.492;8.474;2022-09-09T03:45:11;2.00;;;0.90;;
6143;SDS011;3103;49.492;8.474;2022-09-09T03:47:39;3.83;;;1.20;;
6143;SDS011;3103;49.492;8.474;2022-09-09T03:50:06;3.87;;;1.47;;
6143;SDS011;3103;49.492;8.474;2022-09-09T03:52:41;5.00;;;1.40;;
6143;SDS011;3103;49.492;8.474;2022-09-09T03:55:15;2.80;;;1.10;;
6143;SDS011;3103;49.492;8.474;2022-09-09T03:57:42;4.40;;;1.20;;
6143;SDS011;3103;49.492;8.474;2022-09-09T04:00:09;3.13;;;1.30;;
6143;SDS011;3103;49.492;8.474;2022-09-09T04:02:43;5.90;;;1.10;;
6143;SDS011;3103;49.492;8.474;2022-09-09T04:05:13;1.37;;;1.00;;
6143;SDS011;3103;49.492;8.474;2022-09-09T04:07:42;2.30;;;1.10;;
6143;SDS011;3103;49.492;8.474;2022-09-09T04:10:10;3.20;;;1.83;;
6143;SDS011;3103;49.492;8.474;2022-09-09T04:12:39;3.87;;;1.40;;
6143;SDS011;3103;49.492;8.474;2022-09-09T04:15:06;2.10;;;0.80;;
6143;SDS011;3103;49.492;8.474;2022-09-09T04:17:34;2.33;;;0.87;;
6143;SDS011;3103;49.492;8.474;2022-09-09T04:20:03;1.17;;;0.90;;
6143;SDS011;3103;49.492;8.474;2022-09-09T04:22:30;2.80;;;1.10;;
6143;SDS011;3103;49.492;8.474;2022-09-09T04:24:57;2.30;;;1.30;;
6143;SDS011;3103;49.492;8.474;2022-09-09T04:27:24;1.57;;;1.03;;
6143;SDS011;3103;49.492;8.474;2022-09-09T04:29:50;7.30;;;1.30;;
6143;SDS011;3103;49.492;8.474;2022-09-09T04:32:17;2.20;;;1.20;;
6143;SDS011;3103;49.492;8.474;2022-09-09T04:34:45;3.27;;;1.07;;
6143;SDS011;3103;49.492;8.474;2022-09-09T04:37:13;2.90;;;1.10;;
6143;SDS011;3103;49.492;8.474;2022-09-09T04:39:41;0.93;;;0.77;;
6143;SDS011;3103;49.492;8.474;2022-09-09T04:42:07;1.90;;;1.10;;
6143;SDS011;3103;49.492;8.474;2022-09-09T04:44:35;1.90;;;1.10;;
6143;SDS011;3103;49.492;8.474;2022-09-09T04:47:02;2.50;;;1.03;;
6143;SDS011;3103;49.492;8.474;2022-09-09T04:49:29;2.93;;;1.07;;
6143;SDS011;3103;49.492;8.474;2022-09-09T04:51:58;2.40;;;1.10;;
6143;SDS011;3103;49.492;8.474;2022-09-09T04:54:24;2.67;;;1.10;;
6143;SDS011;3103;49.492;8.474;2022-09-09T04:56:51;5.33;;;1.13;;
6143;SDS011;3103;49.492;8.474;2022-09-09T04:59:18;3.13;;;0.93;;
6143;SDS011;3103;49.492;8.474;2022-09-09T05:01:49;2.10;;;0.80;;
6143;SDS011;3103;49.492;8.474;2022-09-09T05:04:16;2.50;;;1.30;;
6143;SDS011;3103;49.492;8.474;2022-09-09T05:06:43;1.60;;;1.00;;
6143;SDS011;3103;49.492;8.474;2022-09-09T05:09:11;2.60;;;0.83;;
6143;SDS011;3103;49.492;8.474;2022-09-09T05:11:38;2.67;;;1.17;;
6143;SDS011;3103;49.492;8.474;2022-09-09T05:14:15;3.30;;;1.20;;
6143;SDS011;3103;49.492;8.474;2022-09-09T05:16:41;1.27;;;0.80;;
6143;SDS011;3103;49.492;8.474;2022-09-09T05:19:11;2.17;;;1.07;;
6143;SDS011;3103;49.492;8.474;2022-09-09T05:21:43;1.03;;;0.97;;
6143;SDS011;3103;49.492;8.474;2022-09-09T05:24:11;4.33;;;1.10;;
6143;SDS011;3103;49.492;8.474;2022-09-09T05:26:39;1.37;;;1.13;;
6143;SDS011;3103;49.492;8.474;2022-09-09T05:29:06;2.03;;;1.00;;
6143;SDS011;3103;49.492;8.474;2022-09-09T05:31:34;1.83;;;1.07;;
6143;SDS011;3103;49.492;8.474;2022-09-09T05:34:07;1.43;;;1.03;;
6143;SDS011;3103;49.492;8.474;2022-09-09T05:36:34;3.90;;;1.30;;
6143;SDS011;3103;49.492;8.474;2022-09-09T05:39:01;3.20;;;1.27;;
6143;SDS011;3103;49.492;8.474;2022-09-09T05:41:30;3.10;;;1.20;;
6143;SDS011;3103;49.492;8.474;2022-09-09T05:44:00;9.00;;;1.13;;
6143;SDS011;3103;49.492;8.474;2022-09-09T05:46:28;1.50;;;1.27;;
6143;SDS011;3103;49.492;8.474;2022-09-09T05:48:55;4.77;;;1.60;;
6143;SDS011;3103;49.492;8.474;2022-09-09T05:51:27;2.00;;;0.97;;
6143;SDS011;3103;49.492;8.474;2022-09-09T05:53:58;4.53;;;1.20;;
6143;SDS011;3103;49.492;8.474;2022-09-09T05:56:28;5.47;;;1.60;;
6143;SDS011;3103;49.492;8.474;2022-09-09T05:58:58;4.80;;;1.73;;
6143;SDS011;3103;49.492;8.474;2022-09-09T06:01:27;3.30;;;1.20;;
6143;SDS011;3103;49.492;8.474;2022-09-09T06:03:57;4.67;;;1.40;;
6143;SDS011;3103;49.492;8.474;2022-09-09T06:06:25;2.83;;;1.33;;
6143;SDS011;3103;49.492;8.474;2022-09-09T06:08:57;3.40;;;1.03;;
6143;SDS011;3103;49.492;8.474;2022-09-09T06:11:31;1.80;;;0.93;;
6143;SDS011;3103;49.492;8.474;2022-09-09T06:13:59;2.23;;;1.27;;
6143;SDS011;3103;49.492;8.474;2022-09-09T06:16:28;7.97;;;1.50;;
6143;SDS011;3103;49.492;8.474;2022-09-09T06:18:56;3.23;;;1.30;;
6143;SDS011;3103;49.492;8.474;2022-09-09T06:21:26;2.80;;;1.37;;
6143;SDS011;3103;49.492;8.474;2022-09-09T06:23:56;3.20;;;2.00;;
6143;SDS011;3103;49.492;8.474;2022-09-09T06:26:37;0.97;;;0.83;;
6143;SDS011;3103;49.492;8.474;2022-09-09T06:29:10;2.30;;;1.50;;
6143;SDS011;3103;49.492;8.474;2022-09-09T06:31:38;2.53;;;1.50;;
6143;SDS011;3103;49.492;8.474;2022-09-09T06:34:12;2.60;;;1.60;;
6143;SDS011;3103;49.492;8.474;2022-09-09T06:36:43;1.77;;;1.33;;
6143;SDS011;3103;49.492;8.474;2022-09-09T06:39:12;2.93;;;1.30;;
6143;SDS011;3103;49.492;8.474;2022-09-09T06:41:42;2.53;;;1.40;;
6143;SDS011;3103;49.492;8.474;2022-09-09T06:44:38;1.77;;;1.30;;
6143;SDS011;3103;49.492;8.474;2022-09-09T06:47:08;1.87;;;0.90;;
6143;SDS011;3103;49.492;8.474;2022-09-09T06:49:35;3.60;;;1.37;;
6143;SDS011;3103;49.492;8.474;2022-09-09T06:52:05;1.20;;;0.83;;
6143;SDS011;3103;49.492;8.474;2022-09-09T06:54:32;2.80;;;1.27;;
6143;SDS011;3103;49.492;8.474;2022-09-09T06:57:01;2.23;;;1.10;;
6143;SDS011;3103;49.492;8.474;2022-09-09T06:59:49;2.93;;;1.30;;
6143;SDS011;3103;49.492;8.474;2022-09-09T07:02:15;1.83;;;0.90;;
6143;SDS011;3103;49.492;8.474;2022-09-09T07:04:43;2.03;;;1.40;;
6143;SDS011;3103;49.492;8.474;2022-09-09T07:07:10;2.17;;;1.10;;
6143;SDS011;3103;49.492;8.474;2022-09-09T07:09:39;4.70;;;1.60;;
6143;SDS011;3103;49.492;8.474;2022-09-09T07:12:08;1.83;;;1.10;;
6143;SDS011;3103;49.492;8.474;2022-09-09T07:14:38;2.97;;;1.23;;
6143;SDS011;3103;49.492;8.474;2022-09-09T07:17:07;2.87;;;1.30;;
6143;SDS011;3103;49.492;8.474;2022-09-09T07:19:37;8.70;;;1.57;;
6143;SDS011;3103;49.492;8.474;2022-09-09T07:22:05;4.70;;;1.50;;
6143;SDS011;3103;49.492;8.474;2022-09-09T07:24:33;13.37;;;1.60;;
6143;SDS011;3103;49.492;8.474;2022-09-09T07:27:00;4.53;;;2.03;;
6143;SDS011;3103;49.492;8.474;2022-09-09T07:29:28;4.07;;;1.13;;
6143;SDS011;3103;49.492;8.474;2022-09-09T07:31:55;3.77;;;1.30;;
6143;SDS011;3103;49.492;8.474;2022-09-09T07:34:26;4.57;;;1.70;;
6143;SDS011;3103;49.492;8.474;2022-09-09T07:36:53;4.17;;;1.13;;
6143;SDS011;3103;49.492;8.474;2022-09-09T07:39:21;3.47;;;1.47;;
6143;SDS011;3103;49.492;8.474;2022-09-09T07:41:51;2.83;;;1.50;;
6143;SDS011;3103;49.492;8.474;2022-09-09T07:44:21;2.63;;;1.27;;
6143;SDS011;3103;49.492;8.474;2022-09-09T07:46:58;4.03;;;2.30;;
6143;SDS011;3103;49.492;8.474;2022-09-09T07:49:31;4.90;;;1.80;;
6143;SDS011;3103;49.492;8.474;2022-09-09T07:52:00;4.83;;;1.97;;
6143;SDS011;3103;49.492;8.474;2022-09-09T07:54:28;3.67;;;1.40;;
6143;SDS011;3103;49.492;8.474;2022-09-09T07:56:54;2.73;;;1.30;;
6143;SDS011;3103;49.492;8.474;2022-09-09T07:59:25;4.80;;;1.47;;
6143;SDS011;3103;49.492;8.474;2022-09-09T08:01:53;2.83;;;1.60;;
6143;SDS011;3103;49.492;8.474;2022-09-09T08:04:24;5.30;;;1.73;;
6143;SDS011;3103;49.492;8.474;2022-09-09T08:06:54;11.27;;;4.97;;
6143;SDS011;3103;49.492;8.474;2022-09-09T08:09:25;3.60;;;2.20;;
6143;SDS011;3103;49.492;8.474;2022-09-09T08:12:03;8.97;;;4.20;;
6143;SDS011;3103;49.492;8.474;2022-09-09T08:14:32;7.93;;;3.30;;
6143;SDS011;3103;49.492;8.474;2022-09-09T08:16:59;8.70;;;3.07;;
6143;SDS011;3103;49.492;8.474;2022-09-09T08:19:27;3.97;;;1.60;;
6143;SDS011;3103;49.492;8.474;2022-09-09T08:21:57;5.73;;;1.20;;
6143;SDS011;3103;49.492;8.474;2022-09-09T08:24:24;3.87;;;1.30;;
6143;SDS011;3103;49.492;8.474;2022-09-09T08:26:51;9.13;;;6.03;;
6143;SDS011;3103;49.492;8.474;2022-09-09T08:29:21;14.63;;;8.23;;
6143;SDS011;3103;49.492;8.474;2022-09-09T08:31:53;7.00;;;3.43;;
6143;SDS011;3103;49.492;8.474;2022-09-09T08:34:21;7.83;;;2.73;;
6143;SDS011;3103;49.492;8.474;2022-09-09T08:36:50;5.00;;;1.83;;
6143;SDS011;3103;49.492;8.474;2022-09-09T08:39:22;4.27;;;1.53;;
6143;SDS011;3103;49.492;8.474;2022-09-09T08:44:39;2.27;;;0.80;;
6143;SDS011;3103;49.492;8.474;2022-09-09T08:50:27;4.27;;;1.80;;
6143;SDS011;3103;49.492;8.474;2022-09-09T08:53:10;5.60;;;1.97;;
6143;SDS011;3103;49.492;8.474;2022-09-09T09:03:30;7.20;;;1.83;;
6143;SDS011;3103;49.492;8.474;2022-09-09T09:06:34;2.20;;;1.77;;
6143;SDS011;3103;49.492;8.474;2022-09-09T09:09:08;4.00;;;2.10;;
6143;SDS011;3103;49.492;8.474;2022-09-09T09:11:55;3.80;;;1.70;;
6143;SDS011;3103;49.492;8.474;2022-09-09T09:14:35;3.63;;;1.47;;
6143;SDS011;3103;49.492;8.474;2022-09-09T09:17:10;6.80;;;1.70;;
6143;SDS011;3103;49.492;8.474;2022-09-09T09:19:41;4.83;;;1.57;;
6143;SDS011;3103;49.492;8.474;2022-09-09T09:25:00;3.83;;;1.80;;
6143;SDS011;3103;49.492;8.474;2022-09-09T09:27:36;5.63;;;1.60;;
6143;SDS011;3103;49.492;8.474;2022-09-09T09:30:15;3.67;;;1.53;;
6143;SDS011;3103;49.492;8.474;2022-09-09T09:35:48;4.07;;;1.60;;
6143;SDS011;3103;49.492;8.474;2022-09-09T09:38:18;3.73;;;1.80;;
6143;SDS011;3103;49.492;8.474;2022-09-09T09:41:11;5.50;;;1.30;;
6143;SDS011;3103;49.492;8.474;2022-09-09T09:43:39;5.73;;;1.43;;
6143;SDS011;3103;49.492;8.474;2022-09-09T09:46:20;2.43;;;1.30;;
6143;SDS011;3103;49.492;8.474;2022-09-09T09:49:00;7.27;;;1.80;;
6143;SDS011;3103;49.492;8.474;2022-09-09T09:51:31;5.10;;;2.43;;
6143;SDS011;3103;49.492;8.474;2022-09-09T09:54:21;3.73;;;1.50;;
6143;SDS011;3103;49.492;8.474;2022-09-09T09:56:56;3.37;;;1.70;;
6143;SDS011;3103;49.492;8.474;2022-09-09T09:59:45;9.30;;;1.90;;
6143;SDS011;3103;49.492;8.474;2022-09-09T10:02:25;5.67;;;2.00;;
6143;SDS011;3103;49.492;8.474;2022-09-09T10:05:02;2.73;;;1.30;;
6143;SDS011;3103;49.492;8.474;2022-09-09T10:07:34;3.53;;;1.60;;
6143;SDS011;3103;49.492;8.474;2022-09-09T10:10:01;3.20;;;1.40;;
6143;SDS011;3103;49.492;8.474;2022-09-09T10:12:36;3.30;;;1.40;;
6143;SDS011;3103;49.492;8.474;2022-09-09T10:20:32;3.60;;;1.53;;
6143;SDS011;3103;49.492;8.474;2022-09-09T10:23:15;2.93;;;1.30;;
6143;SDS011;3103;49.492;8.474;2022-09-09T10:26:07;3.10;;;1.47;;
6143;SDS011;3103;49.492;8.474;2022-09-09T10:28:43;1.57;;;1.10;;
6143;SDS011;3103;49.492;8.474;2022-09-09T10:36:47;4.40;;;1.57;;
6143;SDS011;3103;49.492;8.474;2022-09-09T10:39:35;4.13;;;1.63;;
6143;SDS011;3103;49.492;8.474;2022-09-09T10:50:25;3.93;;;1.70;;
6143;SDS011;3103;49.492;8.474;2022-09-09T10:53:28;2.83;;;1.33;;
6143;SDS011;3103;49.492;8.474;2022-09-09T10:56:21;8.43;;;1.67;;
6143;SDS011;3103;49.492;8.474;2022-09-09T10:59:00;4.40;;;1.80;;
6143;SDS011;3103;49.492;8.474;2022-09-09T11:06:51;3.33;;;1.60;;
6143;SDS011;3103;49.492;8.474;2022-09-09T11:09:22;6.77;;;5.10;;
6143;SDS011;3103;49.492;8.474;2022-09-09T11:11:56;3.40;;;2.47;;
6143;SDS011;3103;49.492;8.474;2022-09-09T11:14:43;15.67;;;8.50;;
6143;SDS011;3103;49.492;8.474;2022-09-09T11:17:15;7.43;;;3.00;;
6143;SDS011;3103;49.492;8.474;2022-09-09T11:19:47;8.60;;;5.70;;
6143;SDS011;3103;49.492;8.474;2022-09-09T11:25:18;25.03;;;16.33;;
6143;SDS011;3103;49.492;8.474;2022-09-09T11:27:53;17.83;;;9.60;;
6143;SDS011;3103;49.492;8.474;2022-09-09T11:30:42;13.10;;;7.87;;
6143;SDS011;3103;49.492;8.474;2022-09-09T11:33:29;21.90;;;13.97;;
6143;SDS011;3103;49.492;8.474;2022-09-09T11:38:50;6.10;;;1.70;;
6143;SDS011;3103;49.492;8.474;2022-09-09T11:41:19;2.47;;;1.57;;
6143;SDS011;3103;49.492;8.474;2022-09-09T11:43:48;3.10;;;1.87;;
6143;SDS011;3103;49.492;8.474;2022-09-09T11:46:22;8.67;;;1.90;;
6143;SDS011;3103;49.492;8.474;2022-09-09T11:49:01;12.20;;;2.00;;
6143;SDS011;3103;49.492;8.474;2022-09-09T11:51:30;6.17;;;1.80;;
6143;SDS011;3103;49.492;8.474;2022-09-09T11:53:59;3.93;;;1.50;;
6143;SDS011;3103;49.492;8.474;2022-09-09T12:01:58;6.43;;;2.10;;
6143;SDS011;3103;49.492;8.474;2022-09-09T12:04:29;9.23;;;2.17;;
6143;SDS011;3103;49.492;8.474;2022-09-09T12:12:34;4.90;;;1.60;;
6143;SDS011;3103;49.492;8.474;2022-09-09T12:17:41;3.93;;;1.93;;
6143;SDS011;3103;49.492;8.474;2022-09-09T12:29:02;1.93;;;1.13;;
6143;SDS011;3103;49.492;8.474;2022-09-09T12:31:43;6.40;;;4.67;;
6143;SDS011;3103;49.492;8.474;2022-09-09T12:42:47;4.90;;;3.27;;
6143;SDS011;3103;49.492;8.474;2022-09-09T12:45:15;11.47;;;8.00;;
6143;SDS011;3103;49.492;8.474;2022-09-09T12:47:48;14.47;;;8.67;;
6143;SDS011;3103;49.492;8.474;2022-09-09T12:50:25;24.47;;;16.07;;
6143;SDS011;3103;49.492;8.474;2022-09-09T12:52:56;14.53;;;8.93;;
6143;SDS011;3103;49.492;8.474;2022-09-09T12:55:29;4.70;;;2.83;;
6143;SDS011;3103;49.492;8.474;2022-09-09T12:58:00;10.50;;;4.77;;
6143;SDS011;3103;49.492;8.474;2022-09-09T13:00:31;9.23;;;4.43;;
6143;SDS011;3103;49.492;8.474;2022-09-09T13:03:13;5.30;;;3.37;;
6143;SDS011;3103;49.492;8.474;2022-09-09T13:05:43;7.07;;;2.40;;
6143;SDS011;3103;49.492;8.474;2022-09-09T13:08:10;4.30;;;1.93;;
6143;SDS011;3103;49.492;8.474;2022-09-09T13:10:39;5.03;;;2.20;;
6143;SDS011;3103;49.492;8.474;2022-09-09T13:13:21;5.30;;;2.30;;
6143;SDS011;3103;49.492;8.474;2022-09-09T13:15:52;6.50;;;2.60;;
6143;SDS011;3103;49.492;8.474;2022-09-09T13:18:25;5.20;;;2.70;;
6143;SDS011;3103;49.492;8.474;2022-09-09T13:20:54;7.20;;;2.93;;
6143;SDS011;3103;49.492;8.474;2022-09-09T13:23:26;6.87;;;4.07;;
6143;SDS011;3103;49.492;8.474;2022-09-09T13:25:57;21.97;;;12.77;;
6143;SDS011;3103;49.492;8.474;2022-09-09T13:28:30;13.97;;;7.50;;
6143;SDS011;3103;49.492;8.474;2022-09-09T13:31:04;14.23;;;9.13;;
6143;SDS011;3103;49.492;8.474;2022-09-09T13:33:45;12.87;;;7.97;;
6143;SDS011;3103;49.492;8.474;2022-09-09T13:36:12;8.30;;;4.50;;
6143;SDS011;3103;49.492;8.474;2022-09-09T13:38:52;14.17;;;9.60;;
6143;SDS011;3103;49.492;8.474;2022-09-09T13:41:22;6.23;;;4.20;;
6143;SDS011;3103;49.492;8.474;2022-09-09T13:43:51;6.13;;;2.43;;
6143;SDS011;3103;49.492;8.474;2022-09-09T13:46:36;4.97;;;2.50;;
6143;SDS011;3103;49.492;8.474;2022-09-09T13:51:41;4.63;;;2.60;;
6143;SDS011;3103;49.492;8.474;2022-09-09T13:54:12;2.63;;;1.60;;
6143;SDS011;3103;49.492;8.474;2022-09-09T13:56:41;3.17;;;1.87;;
6143;SDS011;3103;49.492;8.474;2022-09-09T13:59:12;4.83;;;2.40;;
6143;SDS011;3103;49.492;8.474;2022-09-09T14:01:45;3.87;;;1.80;;
6143;SDS011;3103;49.492;8.474;2022-09-09T14:04:12;2.97;;;1.73;;
6143;SDS011;3103;49.492;8.474;2022-09-09T14:06:39;2.93;;;1.50;;
6143;SDS011;3103;49.492;8.474;2022-09-09T14:09:06;3.87;;;1.70;;
6143;SDS011;3103;49.492;8.474;2022-09-09T14:11:36;3.43;;;1.63;;
6143;SDS011;3103;49.492;8.474;2022-09-09T14:14:06;3.80;;;1.38;;
6143;SDS011;3103;49.492;8.474;2022-09-09T14:16:33;1.83;;;1.23;;
6143;SDS011;3103;49.492;8.474;2022-09-09T14:19:00;2.72;;;1.23;;
6143;SDS011;3103;49.492;8.474;2022-09-09T14:21:27;2.03;;;1.38;;
6143;SDS011;3103;49.492;8.474;2022-09-09T14:23:54;2.05;;;1.10;;
6143;SDS011;3103;49.492;8.474;2022-09-09T14:26:21;2.20;;;0.95;;
6143;SDS011;3103;49.492;8.474;2022-09-09T14:28:48;1.98;;;1.20;;
6143;SDS011;3103;49.492;8.474;2022-09-09T14:31:23;1.23;;;0.90;;
6143;SDS011;3103;49.492;8.474;2022-09-09T14:33:52;1.98;;;0.93;;
6143;SDS011;3103;49.492;8.474;2022-09-09T14:36:19;2.72;;;1.30;;
6143;SDS011;3103;49.492;8.474;2022-09-09T14:38:46;1.58;;;0.85;;
6143;SDS011;3103;49.492;8.474;2022-09-09T14:41:14;5.15;;;1.30;;
6143;SDS011;3103;49.492;8.474;2022-09-09T14:43:46;3.53;;;1.33;;
6143;SDS011;3103;49.492;8.474;2022-09-09T14:46:14;1.50;;;1.33;;
6143;SDS011;3103;49.492;8.474;2022-09-09T14:48:43;3.05;;;1.40;;
6143;SDS011;3103;49.492;8.474;2022-09-09T14:51:12;3.10;;;1.50;;
6143;SDS011;3103;49.492;8.474;2022-09-09T14:53:44;1.83;;;1.15;;
6143;SDS011;3103;49.492;8.474;2022-09-09T14:56:12;18.85;;;2.70;;
6143;SDS011;3103;49.492;8.474;2022-09-09T14:58:43;7.75;;;2.15;;
6143;SDS011;3103;49.492;8.474;2022-09-09T15:01:11;2.22;;;1.40;;
6143;SDS011;3103;49.492;8.474;2022-09-09T15:03:41;10.38;;;1.77;;
6143;SDS011;3103;49.492;8.474;2022-09-09T15:06:10;2.53;;;1.38;;
6143;SDS011;3103;49.492;8.474;2022-09-09T15:08:39;1.90;;;1.33;;
6143;SDS011;3103;49.492;8.474;2022-09-09T15:11:08;1.57;;;1.27;;
6143;SDS011;3103;49.492;8.474;2022-09-09T15:13:37;2.90;;;1.67;;
6143;SDS011;3103;49.492;8.474;2022-09-09T15:16:16;1.73;;;1.40;;
6143;SDS011;3103;49.492;8.474;2022-09-09T15:18:44;6.17;;;1.27;;
6143;SDS011;3103;49.492;8.474;2022-09-09T15:21:16;2.27;;;1.40;;
6143;SDS011;3103;49.492;8.474;2022-09-09T15:23:45;4.50;;;2.03;;
6143;SDS011;3103;49.492;8.474;2022-09-09T15:26:12;3.83;;;1.63;;
6143;SDS011;3103;49.492;8.474;2022-09-09T15:28:40;3.00;;;1.57;;
6143;SDS011;3103;49.492;8.474;2022-09-09T15:31:13;6.77;;;2.13;;
6143;SDS011;3103;49.492;8.474;2022-09-09T15:33:50;7.97;;;5.40;;
6143;SDS011;3103;49.492;8.474;2022-09-09T15:39:05;9.67;;;6.27;;
6143;SDS011;3103;49.492;8.474;2022-09-09T15:41:34;8.30;;;5.27;;
6143;SDS011;3103;49.492;8.474;2022-09-09T15:44:01;8.03;;;4.47;;
6143;SDS011;3103;49.492;8.474;2022-09-09T15:46:30;4.87;;;2.90;;
6143;SDS011;3103;49.492;8.474;2022-09-09T15:49:21;5.73;;;2.13;;
6143;SDS011;3103;49.492;8.474;2022-09-09T15:51:55;11.50;;;5.70;;
6143;SDS011;3103;49.492;8.474;2022-09-09T15:54:24;8.00;;;5.60;;
6143;SDS011;3103;49.492;8.474;2022-09-09T15:56:53;4.37;;;3.23;;
6143;SDS011;3103;49.492;8.474;2022-09-09T15:59:23;3.67;;;2.13;;
6143;SDS011;3103;49.492;8.474;2022-09-09T16:01:50;3.10;;;1.90;;
6143;SDS011;3103;49.492;8.474;2022-09-09T16:04:18;5.13;;;2.40;;
6143;SDS011;3103;49.492;8.474;2022-09-09T16:06:53;1.97;;;1.43;;
6143;SDS011;3103;49.492;8.474;2022-09-09T16:09:22;2.60;;;1.67;;
6143;SDS011;3103;49.492;8.474;2022-09-09T16:11:49;4.13;;;2.10;;
6143;SDS011;3103;49.492;8.474;2022-09-09T16:14:16;3.93;;;1.77;;
6143;SDS011;3103;49.492;8.474;2022-09-09T16:16:42;6.77;;;1.30;;
6143;SDS011;3103;49.492;8.474;2022-09-09T16:19:10;2.67;;;1.80;;
6143;SDS011;3103;49.492;8.474;2022-09-09T16:21:39;3.40;;;1.80;;
6143;SDS011;3103;49.492;8.474;2022-09-09T16:24:09;3.20;;;2.10;;
6143;SDS011;3103;49.492;8.474;2022-09-09T16:26:38;3.00;;;2.17;;
6143;SDS011;3103;49.492;8.474;2022-09-09T16:29:06;3.20;;;1.50;;
6143;SDS011;3103;49.492;8.474;2022-09-09T16:31:33;4.93;;;1.80;;
6143;SDS011;3103;49.492;8.474;2022-09-09T16:34:00;3.17;;;2.00;;
6143;SDS011;3103;49.492;8.474;2022-09-09T16:36:28;2.07;;;1.70;;
6143;SDS011;3103;49.492;8.474;2022-09-09T16:39:01;4.90;;;3.57;;
6143;SDS011;3103;49.492;8.474;2022-09-09T16:41:30;9.43;;;6.50;;
6143;SDS011;3103;49.492;8.474;2022-09-09T16:43:58;8.40;;;4.43;;
6143;SDS011;3103;49.492;8.474;2022-09-09T16:46:29;6.73;;;3.87;;
6143;SDS011;3103;49.492;8.474;2022-09-09T16:48:57;11.57;;;7.90;;
6143;SDS011;3103;49.492;8.474;2022-09-09T16:51:26;7.77;;;5.37;;
6143;SDS011;3103;49.492;8.474;2022-09-09T16:53:55;8.97;;;5.97;;
6143;SDS011;3103;49.492;8.474;2022-09-09T16:56:26;6.00;;;3.80;;
6143;SDS011;3103;49.492;8.474;2022-09-09T16:58:58;2.77;;;2.23;;
6143;SDS011;3103;49.492;8.474;2022-09-09T17:01:27;3.23;;;1.37;;
6143;SDS011;3103;49.492;8.474;2022-09-09T17:03:56;1.57;;;1.33;;
6143;SDS011;3103;49.492;8.474;2022-09-09T17:06:27;2.90;;;1.57;;
6143;SDS011;3103;49.492;8.474;2022-09-09T17:08:56;1.80;;;1.23;;
6143;SDS011;3103;49.492;8.474;2022-09-09T17:11:23;1.90;;;1.53;;
6143;SDS011;3103;49.492;8.474;2022-09-09T17:13:51;5.40;;;2.10;;
6143;SDS011;3103;49.492;8.474;2022-09-09T17:16:19;4.20;;;2.50;;
6143;SDS011;3103;49.492;8.474;2022-09-09T17:18:48;4.83;;;2.00;;
6143;SDS011;3103;49.492;8.474;2022-09-09T17:21:18;5.30;;;1.93;;
6143;SDS011;3103;49.492;8.474;2022-09-09T17:23:47;3.63;;;2.30;;
6143;SDS011;3103;49.492;8.474;2022-09-09T17:26:15;8.53;;;2.40;;
6143;SDS011;3103;49.492;8.474;2022-09-09T17:28:43;6.80;;;2.20;;
6143;SDS011;3103;49.492;8.474;2022-09-09T17:31:12;5.73;;;3.57;;
6143;SDS011;3103;49.492;8.474;2022-09-09T17:33:42;5.43;;;2.70;;
6143;SDS011;3103;49.492;8.474;2022-09-09T17:36:18;6.23;;;3.40;;
6143;SDS011;3103;49.492;8.474;2022-09-09T17:38:48;5.27;;;3.70;;
6143;SDS011;3103;49.492;8.474;2022-09-09T17:41:16;6.27;;;3.33;;
6143;SDS011;3103;49.492;8.474;2022-09-09T17:43:45;7.93;;;3.60;;
6143;SDS011;3103;49.492;8.474;2022-09-09T17:46:16;8.87;;;5.13;;